Weather History for KGLH - December, 2011

Change the Weather History Date:

Monday, December 5, 2011

  Actual Average Record
Temperature  
Mean Temperature 46 °F 47 °F  
Max Temperature 52 °F 57 °F 79 °F (1933)
Min Temperature 39 °F 37 °F 23 °F (1935)
Degree Days  
Heating Degree Days 19 18  
Month to date heating degree days 75 88  
Since 1 July heating degree days 517 550  
Cooling Degree Days 0 0  
Month to date cooling degree days 0 0  
Year to date cooling degree days 2469 2186  
Moisture  
Dew Point 43 °F    
Average Humidity 95    
Maximum Humidity 100    
Minimum Humidity 89    
Precipitation  
Precipitation 1.31 in 0.20 in 1.69 in (1930)
Month to date precipitation 2.77 1.02  
Year to date precipitation 29.39 48.04  
Sea Level Pressure  
Sea Level Pressure 30.04 in    
Wind  
Wind Speed 15 mph (North)    
Max Wind Speed 24 mph    
Max Gust Speed 29 mph    
Visibility 5 miles    
Events Rain    
T = Trace of Precipitation, MM = Missing Value Source: NWS Daily Summary

Daily Weather History Graph

Daily Weather History Graph

Search for Another Location

Airport or City:

Trip Planner

Search our weather history database for the weather conditions in past years. The results will help you decide how hot, cold, wet, or windy it might be!

Date:

Astronomy

Dec. 05, 2011 Rise Set
Actual Time 6:53 AM CST 4:55 PM CST
Civil Twilight 6:25 AM CST 5:23 PM CST
Nautical Twilight 5:55 AM CST 5:53 PM CST
Astronomical Twilight 5:24 AM CST 6:24 PM CST
Moon 1:45 PM CST (12/5) 2:24 AM CST (12/5)
Length of Visible Light 10h 57m
Length of Day
10h 02m
Waxing Gibbous, 80% of the Moon is Illuminated
Dec 5
Waxing Gibbous
Dec 10
Full
Dec 17
Last Quarter
Dec 24
New
Jan 1
First Quarter

Hourly Weather History & Observations

Time (CST) Temp. Windchill Dew Point Humidity Pressure Visibility Wind Dir Wind Speed Gust Speed Precip Events Conditions
12:11 AM 51.8 °F - 51.8 °F 100% 29.99 in 2.5 mi North 9.2 mph - 0.03 in Rain Light Rain
12:16 AM 51.8 °F - 51.8 °F 100% 29.99 in 3.0 mi North 6.9 mph - 0.03 in Rain Light Rain
12:24 AM 51.8 °F - 51.8 °F 100% 29.99 in 2.5 mi North 8.1 mph - 0.04 in Rain Light Rain
12:53 AM 52.0 °F - 51.1 °F 97% 30.02 in 2.5 mi North 11.5 mph - 0.12 in Rain Rain
1:23 AM 51.8 °F - 51.8 °F 100% 29.99 in 3.0 mi North 11.5 mph - 0.08 in Rain Rain
1:51 AM 50.0 °F - 48.2 °F 94% 29.98 in 3.0 mi North 16.1 mph - 0.11 in Rain Rain
1:53 AM 50.0 °F - 48.9 °F 96% 30.01 in 2.5 mi North 15.0 mph - 0.13 in Rain Rain
2:26 AM 48.2 °F - 48.2 °F 100% 29.99 in 2.5 mi North 15.0 mph - 0.15 in Rain Heavy Rain
2:48 AM 48.2 °F - 48.2 °F 100% 30.00 in 3.0 mi North 12.7 mph - 0.22 in Rain Rain
2:53 AM 48.9 °F - 48.0 °F 97% 30.01 in 3.0 mi North 12.7 mph - 0.23 in Rain Rain
3:02 AM 48.2 °F - 48.2 °F 100% 29.99 in 2.5 mi North 15.0 mph - 0.01 in Rain Rain
3:09 AM 48.2 °F - 48.2 °F 100% 30.00 in 3.0 mi North 15.0 mph - 0.02 in Rain Light Rain
3:19 AM 48.2 °F - 48.2 °F 100% 29.99 in 2.0 mi North 13.8 mph - 0.06 in Rain Rain
3:31 AM 48.2 °F - 48.2 °F 100% 29.99 in 3.0 mi North 12.7 mph - 0.07 in Rain Rain
3:46 AM 48.2 °F - 48.2 °F 100% 29.99 in 4.0 mi North 19.6 mph 24.2 mph 0.08 in   Overcast
3:53 AM 48.9 °F - 48.0 °F 97% 30.02 in 7.0 mi North 16.1 mph - 0.08 in Rain Light Rain
4:14 AM 48.2 °F - 46.4 °F 93% 29.99 in 5.0 mi North 20.7 mph - 0.01 in Rain Light Rain
5:21 AM 46.4 °F 39.5 °F 44.6 °F 93% 30.02 in 7.0 mi North 17.3 mph - 0.00 in Rain Light Rain
5:39 AM 46.4 °F 39.0 °F 44.6 °F 93% 30.02 in 9.0 mi North 19.6 mph 25.3 mph 0.00 in   Overcast
5:53 AM 46.0 °F 39.9 °F 45.0 °F 96% 30.03 in 5.0 mi NNE 13.8 mph - 0.00 in Rain Light Rain
6:09 AM 46.4 °F 39.8 °F 44.6 °F 93% 30.00 in 3.0 mi NNE 16.1 mph 21.9 mph 0.02 in Rain Light Rain
6:19 AM 46.4 °F 39.8 °F 44.6 °F 93% 30.00 in 2.5 mi NNE 16.1 mph - 0.04 in Rain Rain
6:31 AM 46.4 °F 40.1 °F 44.6 °F 93% 29.99 in 3.0 mi NE 15.0 mph - 0.07 in Rain Rain
6:50 AM 46.4 °F 40.1 °F 44.6 °F 93% 29.98 in 10.0 mi NNE 15.0 mph - 0.08 in Rain Light Rain
6:53 AM 46.0 °F 39.3 °F 45.0 °F 96% 30.01 in 10.0 mi NE 16.1 mph - 0.08 in Rain Light Rain
7:53 AM 46.4 °F 40.1 °F 44.6 °F 93% 29.97 in 3.0 mi ENE 15.0 mph 18.4 mph N/A Rain Rain
7:55 AM 46.4 °F 40.4 °F 44.6 °F 93% 29.97 in 1.8 mi ENE 13.8 mph 18.4 mph 0.02 in Rain Heavy Rain
8:03 AM 46.4 °F 41.1 °F 44.6 °F 93% 29.98 in 1.2 mi NE 11.5 mph - 0.06 in Rain Heavy Rain
8:13 AM 46.4 °F 41.5 °F 44.6 °F 93% 29.97 in 2.5 mi NE 10.4 mph - 0.07 in Rain Rain
8:20 AM 46.4 °F 41.9 °F 44.6 °F 93% 29.97 in 1.8 mi NE 9.2 mph - 0.09 in Rain Rain
8:29 AM 46.4 °F 42.4 °F 44.6 °F 93% 29.98 in 2.0 mi ENE 8.1 mph - 0.13 in Rain Rain
8:45 AM 46.4 °F 43.5 °F 44.6 °F 93% 29.98 in 3.0 mi NNE 5.8 mph - 0.16 in Rain Light Rain
8:53 AM 46.0 °F 41.9 °F 46.0 °F 100% 30.01 in 6.0 mi NNE 8.1 mph - 0.17 in Rain Light Rain
9:01 AM 46.4 °F 42.9 °F 46.4 °F 100% 29.98 in 6.0 mi NNE 6.9 mph - 0.01 in Rain Light Rain
9:15 AM 46.4 °F 41.1 °F 46.4 °F 100% 29.98 in 6.0 mi NNE 11.5 mph - 0.02 in Rain Light Rain
9:53 AM 46.0 °F 39.6 °F 45.0 °F 96% 30.07 in 8.0 mi North 15.0 mph - 0.05 in Rain Light Rain
10:24 AM 46.4 °F 39.8 °F 44.6 °F 93% 30.06 in 2.5 mi NW 16.1 mph - 0.06 in Rain Rain
10:29 AM 46.4 °F 39.0 °F 44.6 °F 93% 30.05 in 3.0 mi NNW 19.6 mph 23.0 mph 0.07 in Rain Light Rain
10:53 AM 46.0 °F 39.9 °F 45.0 °F 96% 30.05 in 10.0 mi NNW 13.8 mph - 0.08 in Rain Light Rain
10:55 AM 46.4 °F 39.8 °F 44.6 °F 93% 30.02 in 10.0 mi North 16.1 mph 20.7 mph 0.00 in Rain Light Rain
11:07 AM 44.6 °F 36.6 °F 42.8 °F 93% 30.02 in 10.0 mi North 19.6 mph 24.2 mph 0.01 in Rain Light Rain
11:53 AM 44.1 °F 36.5 °F 43.0 °F 96% 30.06 in 3.0 mi North 17.3 mph 21.9 mph 0.07 in Rain Rain
12:32 PM 44.6 °F 37.4 °F 42.8 °F 93% 30.04 in 9.0 mi North 16.1 mph 24.2 mph 0.04 in Rain Light Rain
12:48 PM 42.8 °F 35.4 °F 41.0 °F 93% 30.03 in 8.0 mi North 15.0 mph 21.9 mph 0.05 in Rain Light Rain
12:53 PM 43.0 °F 34.5 °F 41.0 °F 93% 30.06 in 3.0 mi North 19.6 mph 24.2 mph 0.07 in Rain Heavy Rain
12:56 PM 42.8 °F 34.3 °F 41.0 °F 93% 30.02 in 1.8 mi North 19.6 mph 26.5 mph 0.02 in Rain Heavy Rain
1:07 PM 42.8 °F 34.5 °F 39.2 °F 87% 30.03 in 2.0 mi North 18.4 mph 27.6 mph 0.06 in Rain Heavy Rain
1:22 PM 42.8 °F 34.8 °F 39.2 °F 87% 30.01 in 2.0 mi NNE 17.3 mph - 0.12 in Rain Rain
1:32 PM 42.8 °F 34.5 °F 39.2 °F 87% 30.02 in 6.0 mi North 18.4 mph 28.8 mph 0.13 in Rain Light Rain
1:39 PM 42.8 °F 34.8 °F 39.2 °F 87% 30.01 in 10.0 mi North 17.3 mph 27.6 mph 0.13 in Rain Light Rain
1:53 PM 43.0 °F 34.5 °F 39.9 °F 89% 30.03 in 10.0 mi North 19.6 mph 25.3 mph 0.13 in   Overcast
2:03 PM 42.8 °F 34.5 °F 39.2 °F 87% 30.01 in 10.0 mi North 18.4 mph - N/A   Overcast
2:53 PM 42.1 °F 35.2 °F 39.0 °F 89% 30.05 in 10.0 mi North 12.7 mph 23.0 mph N/A   Overcast
3:53 PM 42.8 °F 35.4 °F 39.2 °F 87% 30.06 in 3.0 mi North 15.0 mph - N/A Rain Light Rain
3:58 PM 42.8 °F 35.1 °F 39.2 °F 87% 30.06 in 2.5 mi North 16.1 mph - 0.00 in Rain Light Rain
4:18 PM 42.8 °F 35.8 °F 39.2 °F 87% 30.07 in 6.0 mi North 13.8 mph - 0.00 in   Overcast
4:53 PM 41.0 °F 32.8 °F 39.0 °F 93% 30.10 in 10.0 mi North 16.1 mph - 0.00 in   Overcast
5:10 PM 41.0 °F 32.5 °F 39.2 °F 93% 30.08 in 5.0 mi North 17.3 mph - N/A   Overcast
5:44 PM 39.2 °F 30.2 °F 37.4 °F 93% 30.09 in 10.0 mi North 17.3 mph - N/A   Overcast
5:53 PM 39.9 °F 30.8 °F 37.9 °F 93% 30.12 in 10.0 mi North 18.4 mph 25.3 mph N/A   Overcast
6:04 PM 39.2 °F 30.5 °F 37.4 °F 93% 30.10 in 10.0 mi North 16.1 mph - N/A   Overcast
6:53 PM 39.9 °F 31.8 °F 37.9 °F 93% 30.14 in 8.0 mi North 15.0 mph - N/A   Overcast
7:53 PM 39.9 °F 31.4 °F 37.9 °F 93% 30.14 in 10.0 mi North 16.1 mph - N/A   Overcast
8:17 PM 39.2 °F 30.2 °F 37.4 °F 93% 30.12 in 7.0 mi NNE 17.3 mph 21.9 mph N/A   Overcast
8:53 PM 39.9 °F 31.8 °F 37.9 °F 93% 30.16 in 10.0 mi North 15.0 mph 20.7 mph N/A   Overcast
9:53 PM 39.9 °F 32.5 °F 37.9 °F 93% 30.17 in 8.0 mi North 12.7 mph - 0.00 in   Overcast
10:51 PM 39.2 °F 31.2 °F 37.4 °F 93% 30.14 in 5.0 mi North 13.8 mph - N/A   Overcast
10:53 PM 39.0 °F 30.6 °F 37.9 °F 96% 30.17 in 5.0 mi North 15.0 mph - N/A   Overcast
11:12 PM 39.2 °F 30.8 °F 37.4 °F 93% 30.14 in 3.0 mi North 15.0 mph - N/A   Overcast
11:45 PM 39.2 °F 31.6 °F 37.4 °F 93% 30.15 in 4.0 mi North 12.7 mph - 0.00 in   Overcast
11:47 PM 39.2 °F 32.5 °F 37.4 °F 93% 30.15 in 4.0 mi North 10.4 mph - 0.00 in   Overcast
11:53 PM 39.0 °F 30.6 °F 37.9 °F 96% 30.18 in 3.0 mi North 15.0 mph - 0.00 in   Overcast